Time;durP1;ratioP1;P1;durP2;ratioP2;P2;SDS_P1;SDS_P2;PMS_P1;PMS_P2;Temp;Humidity;BMP_temperature;BMP_pressure;BME280_temperature;BME280_humidity;BME280_pressure;Samples;Min_cycle;Max_cycle;Signal;HPM_P1;HPM_P2
2023/02/12 00:01:01;;;;;;;0.10;0.10;;;7.60;99.90;;;;;;5022838;28;20193;-78
2023/02/12 00:03:26;;;;;;;0.10;0.10;;;7.60;99.90;;;;;;5025525;28;20244;-78
2023/02/12 00:05:52;;;;;;;0.10;0.10;;;7.50;99.90;;;;;;5022610;28;20634;-79
2023/02/12 00:08:17;;;;;;;0.10;0.10;;;7.00;99.90;;;;;;5021565;28;20183;-79
2023/02/12 00:10:44;;;;;;;0.10;0.10;;;7.00;99.90;;;;;;5026396;28;20209;-79
2023/02/12 00:13:10;;;;;;;0.10;0.10;;;7.10;99.90;;;;;;5025485;28;20284;-79
2023/02/12 00:15:41;;;;;;;0.10;0.10;;;7.20;99.90;;;;;;5022678;28;20196;-79
2023/02/12 00:18:07;;;;;;;0.10;0.10;;;7.30;99.90;;;;;;5024012;28;20189;-79
2023/02/12 00:20:33;;;;;;;0.10;0.10;;;7.30;99.90;;;;;;5025158;28;20200;-79
2023/02/12 00:22:58;;;;;;;0.00;0.00;;;7.40;99.90;;;;;;5023036;28;20201;-79
2023/02/12 00:25:24;;;;;;;0.00;0.00;;;7.40;99.90;;;;;;5024687;28;20211;-79
2023/02/12 00:27:49;;;;;;;0.10;0.10;;;7.50;99.90;;;;;;5025556;28;20246;-79
2023/02/12 00:30:15;;;;;;;0.10;0.10;;;7.40;99.90;;;;;;5024079;28;20222;-78
2023/02/12 00:32:40;;;;;;;0.10;0.10;;;7.50;99.90;;;;;;5024603;28;20210;-79
2023/02/12 00:35:06;;;;;;;0.10;0.10;;;7.50;99.90;;;;;;5023674;28;20197;-78
2023/02/12 00:37:32;;;;;;;0.10;0.10;;;7.50;99.90;;;;;;5024665;28;20197;-79
2023/02/12 00:39:57;;;;;;;0.10;0.10;;;7.40;99.90;;;;;;5023462;28;20183;-79
2023/02/12 00:42:23;;;;;;;0.10;0.10;;;7.40;99.90;;;;;;5025516;28;20239;-79
2023/02/12 00:44:48;;;;;;;0.10;0.10;;;7.40;99.90;;;;;;5025011;28;20204;-79
2023/02/12 00:47:15;;;;;;;0.00;0.00;;;7.50;99.90;;;;;;5020399;28;20209;-78
2023/02/12 00:49:41;;;;;;;0.10;0.10;;;7.50;99.90;;;;;;5023186;28;20186;-79
2023/02/12 00:52:06;;;;;;;0.10;0.10;;;7.50;99.90;;;;;;5024397;28;20238;-78
2023/02/12 00:54:32;;;;;;;0.00;0.00;;;7.60;99.90;;;;;;5025007;28;20198;-79
2023/02/12 00:56:57;;;;;;;0.10;0.10;;;7.60;99.90;;;;;;5025912;28;20178;-79
2023/02/12 00:59:24;;;;;;;0.10;0.10;;;7.70;99.90;;;;;;5024237;28;20272;-78
2023/02/12 01:01:50;;;;;;;0.10;0.10;;;7.70;99.90;;;;;;5024077;28;20586;-79
2023/02/12 01:04:17;;;;;;;0.10;0.10;;;7.70;99.90;;;;;;5023562;28;20232;-78
2023/02/12 01:06:42;;;;;;;0.10;0.10;;;7.70;99.90;;;;;;5024214;28;20252;-79
2023/02/12 01:09:08;;;;;;;0.10;0.10;;;7.70;99.90;;;;;;5026308;28;20548;-78
2023/02/12 01:11:33;;;;;;;0.10;0.10;;;7.70;99.90;;;;;;5022930;28;20607;-78
2023/02/12 01:13:59;;;;;;;0.07;0.07;;;7.70;99.90;;;;;;5024287;28;20502;-78
2023/02/12 01:16:25;;;;;;;0.10;0.10;;;7.80;99.90;;;;;;5024099;28;20178;-79
2023/02/12 01:18:52;;;;;;;0.00;0.00;;;7.70;99.90;;;;;;5024803;28;20220;-78
2023/02/12 01:21:21;;;;;;;0.10;0.10;;;7.70;99.90;;;;;;5024724;28;20210;-78
2023/02/12 01:23:48;;;;;;;0.10;0.10;;;7.70;99.90;;;;;;5022093;28;20193;-79
2023/02/12 01:26:14;;;;;;;0.10;0.10;;;7.80;99.90;;;;;;5024165;28;20288;-78
2023/02/12 01:28:42;;;;;;;0.10;0.10;;;7.80;99.90;;;;;;5021397;28;20980;-79
2023/02/12 01:31:10;;;;;;;0.10;0.10;;;7.70;99.90;;;;;;5023936;28;20316;-79
2023/02/12 01:33:36;;;;;;;0.10;0.10;;;7.80;99.90;;;;;;5025394;28;20178;-78
2023/02/12 01:36:02;;;;;;;0.10;0.10;;;7.80;99.90;;;;;;5029449;28;20239;-79
2023/02/12 01:38:27;;;;;;;0.10;0.10;;;7.80;99.90;;;;;;5027339;28;20512;-79
2023/02/12 01:41:00;;;;;;;0.10;0.10;;;7.70;99.90;;;;;;5029815;28;20186;-79
2023/02/12 01:43:25;;;;;;;0.10;0.10;;;7.80;99.90;;;;;;5026593;28;20198;-79
2023/02/12 01:45:52;;;;;;;0.10;0.10;;;7.70;99.90;;;;;;5027078;28;20260;-79
2023/02/12 01:48:20;;;;;;;9.57;9.03;;;7.70;99.90;;;;;;5023230;28;20193;-78
2023/02/12 01:50:48;;;;;;;0.10;0.10;;;7.80;99.90;;;;;;5028757;28;20271;-79
2023/02/12 01:53:19;;;;;;;0.10;0.10;;;7.80;99.90;;;;;;5026399;28;20190;-78
2023/02/12 01:55:47;;;;;;;0.10;0.10;;;7.90;99.90;;;;;;5030522;28;20188;-79
2023/02/12 01:58:13;;;;;;;0.10;0.10;;;7.90;99.90;;;;;;5045029;28;20273;-79
2023/02/12 02:00:39;;;;;;;0.10;0.10;;;7.90;99.90;;;;;;5031898;28;20204;-78
2023/02/12 02:03:04;;;;;;;0.10;0.10;;;7.90;99.90;;;;;;5026107;28;20209;-79
2023/02/12 02:06:07;;;;;;;0.10;0.10;;;7.80;99.90;;;;;;5032462;28;20208;-79
2023/02/12 02:08:33;;;;;;;0.10;0.10;;;7.70;99.90;;;;;;4998039;28;20593;-79
2023/02/12 02:10:58;;;;;;;0.10;0.10;;;7.80;99.90;;;;;;5029417;28;20178;-79
2023/02/12 02:16:29;;;;;;;0.10;0.10;;;7.80;99.90;;;;;;5027292;28;20197;-79
2023/02/12 02:18:57;;;;;;;0.10;0.10;;;7.80;99.90;;;;;;5027072;28;20196;-78
2023/02/12 02:22:05;;;;;;;0.10;0.10;;;7.80;99.90;;;;;;5023872;28;20319;-79
2023/02/12 02:25:05;;;;;;;0.03;0.03;;;7.80;99.90;;;;;;5026334;28;20190;-78
2023/02/12 02:27:50;;;;;;;0.10;0.10;;;7.80;99.90;;;;;;5023644;28;20224;-79
2023/02/12 02:30:20;;;;;;;0.10;0.10;;;7.80;99.90;;;;;;5027960;28;20209;-79
2023/02/12 02:32:58;;;;;;;0.10;0.10;;;7.80;99.90;;;;;;5027962;28;20201;-78
2023/02/12 02:35:47;;;;;;;0.10;0.10;;;7.70;99.90;;;;;;5026406;28;20316;-78
2023/02/12 02:38:16;;;;;;;0.10;0.10;;;7.70;99.90;;;;;;5025900;28;20221;-78
2023/02/12 02:40:49;;;;;;;0.10;0.10;;;7.70;99.90;;;;;;5027348;28;20189;-79
2023/02/12 02:43:20;;;;;;;0.10;0.10;;;7.60;99.90;;;;;;5028292;28;20211;-79
2023/02/12 02:45:52;;;;;;;0.10;0.10;;;7.60;99.90;;;;;;5022526;28;20246;-79
2023/02/12 02:48:24;;;;;;;0.10;0.10;;;7.60;99.90;;;;;;5026383;28;20438;-78
2023/02/12 02:50:56;;;;;;;0.10;0.10;;;7.60;99.90;;;;;;5026433;28;20206;-79
2023/02/12 02:53:38;;;;;;;0.10;0.10;;;7.60;99.90;;;;;;5027609;28;20195;-78
2023/02/12 02:56:07;;;;;;;0.10;0.10;;;7.70;99.90;;;;;;5025871;28;20178;-79
2023/02/12 02:58:45;;;;;;;0.10;0.10;;;7.60;99.90;;;;;;5023568;28;20190;-79
2023/02/12 03:01:39;;;;;;;0.10;0.10;;;7.60;99.90;;;;;;5026303;28;20279;-78
2023/02/12 03:04:09;;;;;;;0.10;0.10;;;7.60;99.90;;;;;;5024400;28;20273;-78
2023/02/12 03:06:44;;;;;;;0.10;0.10;;;7.50;99.90;;;;;;5025931;28;20210;-79
2023/02/12 03:09:27;;;;;;;0.10;0.10;;;7.50;99.90;;;;;;5025804;28;21192;-79
2023/02/12 03:11:57;;;;;;;0.03;0.03;;;7.50;99.90;;;;;;5025702;28;20300;-78
2023/02/12 03:14:28;;;;;;;0.10;0.10;;;7.50;99.90;;;;;;5027147;28;20285;-79
2023/02/12 03:17:17;;;;;;;0.10;0.10;;;7.50;99.90;;;;;;5022164;28;20196;-79
2023/02/12 03:19:48;;;;;;;0.10;0.10;;;7.60;99.90;;;;;;5023629;28;20194;-79
2023/02/12 03:22:21;;;;;;;0.10;0.10;;;7.60;99.90;;;;;;5024378;28;20675;-80
2023/02/12 03:24:56;;;;;;;0.00;0.00;;;7.60;99.90;;;;;;5025473;28;20183;-79
2023/02/12 03:27:31;;;;;;;0.10;0.10;;;7.60;99.90;;;;;;5025014;28;20277;-79
2023/02/12 03:29:57;;;;;;;0.10;0.10;;;7.60;99.90;;;;;;5024949;28;20185;-79
2023/02/12 03:32:37;;;;;;;0.10;0.10;;;7.60;99.90;;;;;;5026998;28;20623;-79
2023/02/12 03:35:33;;;;;;;0.10;0.10;;;7.70;99.90;;;;;;5024433;28;20186;-79
2023/02/12 03:38:19;;;;;;;0.10;0.10;;;7.60;99.90;;;;;;5025052;28;20182;-78
2023/02/12 03:40:57;;;;;;;0.10;0.10;;;7.60;99.90;;;;;;5025375;28;20364;-79
2023/02/12 03:43:38;;;;;;;0.10;0.10;;;7.50;99.90;;;;;;5024889;28;20643;-78
2023/02/12 03:46:09;;;;;;;0.10;0.10;;;7.50;99.90;;;;;;5026049;28;20201;-78
2023/02/12 03:48:42;;;;;;;0.10;0.10;;;7.50;99.90;;;;;;5023086;28;20190;-78
2023/02/12 03:51:17;;;;;;;0.10;0.10;;;7.40;99.90;;;;;;5026074;28;20772;-79
2023/02/12 03:53:43;;;;;;;0.10;0.10;;;7.40;99.90;;;;;;5026580;28;20184;-79
2023/02/12 03:56:16;;;;;;;0.10;0.10;;;7.40;99.90;;;;;;5023202;28;20937;-79
2023/02/12 03:58:44;;;;;;;0.10;0.10;;;7.50;99.90;;;;;;5026328;28;20189;-79
2023/02/12 04:01:11;;;;;;;0.10;0.10;;;7.50;99.90;;;;;;5024541;28;20264;-79
2023/02/12 04:03:36;;;;;;;0.10;0.10;;;7.50;99.90;;;;;;5024777;28;20201;-80
2023/02/12 04:06:02;;;;;;;0.10;0.10;;;7.50;99.90;;;;;;5025656;28;20213;-79
2023/02/12 04:08:30;;;;;;;0.10;0.10;;;7.40;99.90;;;;;;5025577;28;20193;-79
2023/02/12 04:11:34;;;;;;;0.10;0.10;;;7.40;99.90;;;;;;5024508;28;20178;-79
2023/02/12 04:14:27;;;;;;;0.10;0.10;;;7.40;99.90;;;;;;5012473;28;20197;-78
2023/02/12 04:17:16;;;;;;;0.10;0.10;;;7.40;99.90;;;;;;5024881;28;20189;-78
2023/02/12 04:20:09;;;;;;;0.10;0.10;;;7.50;99.90;;;;;;5024859;28;20195;-79
2023/02/12 04:22:55;;;;;;;0.10;0.10;;;7.50;99.90;;;;;;5024344;28;20222;-79
2023/02/12 04:25:42;;;;;;;0.10;0.10;;;7.60;99.90;;;;;;5023952;28;20693;-79
2023/02/12 04:28:39;;;;;;;0.10;0.10;;;7.50;99.90;;;;;;5024040;28;20658;-79
2023/02/12 04:31:19;;;;;;;0.10;0.10;;;7.40;99.90;;;;;;5024417;28;20247;-78
2023/02/12 04:34:14;;;;;;;0.10;0.10;;;7.50;99.90;;;;;;5024161;28;20190;-78
2023/02/12 04:36:48;;;;;;;0.10;0.10;;;7.40;99.90;;;;;;5025145;28;20203;-79
2023/02/12 04:39:21;;;;;;;0.10;0.10;;;7.50;99.90;;;;;;5025598;28;20182;-78
2023/02/12 04:41:48;;;;;;;0.10;0.10;;;7.40;99.90;;;;;;5024516;28;20292;-79
2023/02/12 04:44:21;;;;;;;0.10;0.10;;;7.40;99.90;;;;;;5025024;28;20634;-79
2023/02/12 04:46:47;;;;;;;0.10;0.10;;;7.30;99.90;;;;;;5024312;28;20214;-78
2023/02/12 04:49:16;;;;;;;0.10;0.10;;;7.30;99.90;;;;;;5022694;28;20190;-78
2023/02/12 04:51:42;;;;;;;0.10;0.10;;;7.00;99.90;;;;;;5023923;28;20217;-79
2023/02/12 04:54:07;;;;;;;0.10;0.10;;;6.90;99.90;;;;;;5024773;28;20189;-79
2023/02/12 04:56:33;;;;;;;0.10;0.10;;;6.90;99.90;;;;;;5023301;28;20762;-79
2023/02/12 04:58:58;;;;;;;0.10;0.10;;;6.90;99.90;;;;;;5024150;28;20227;-79
2023/02/12 05:01:24;;;;;;;0.10;0.10;;;7.00;99.90;;;;;;5023800;28;20340;-79
2023/02/12 05:03:51;;;;;;;0.10;0.10;;;7.10;99.90;;;;;;5023945;28;20194;-79
2023/02/12 05:06:17;;;;;;;0.10;0.10;;;7.20;99.90;;;;;;5023961;28;20225;-79
2023/02/12 05:08:43;;;;;;;0.07;0.07;;;7.30;99.90;;;;;;5027926;28;20201;-79
2023/02/12 05:11:09;;;;;;;0.10;0.10;;;7.40;99.90;;;;;;5032081;28;20185;-79
2023/02/12 05:13:36;;;;;;;0.10;0.10;;;7.40;99.90;;;;;;5029814;28;20185;-79
2023/02/12 05:16:06;;;;;;;0.10;0.10;;;7.40;99.90;;;;;;5030368;28;21086;-78
2023/02/12 05:18:32;;;;;;;0.10;0.10;;;7.50;99.90;;;;;;5030508;28;20285;-79
2023/02/12 05:21:00;;;;;;;0.10;0.10;;;7.40;99.90;;;;;;5025807;28;20192;-79
2023/02/12 05:23:31;;;;;;;0.10;0.10;;;7.50;99.90;;;;;;5031745;28;20192;-79
2023/02/12 05:26:01;;;;;;;0.00;0.00;;;7.50;99.90;;;;;;5029859;28;20217;-79
2023/02/12 05:28:28;;;;;;;0.10;0.10;;;7.50;99.90;;;;;;5027176;28;20682;-79
2023/02/12 05:30:54;;;;;;;0.10;0.10;;;7.50;99.90;;;;;;5030629;28;20192;-79
2023/02/12 05:33:20;;;;;;;0.10;0.10;;;7.50;99.90;;;;;;5030623;28;20189;-78
2023/02/12 05:35:45;;;;;;;0.10;0.10;;;7.50;99.90;;;;;;5032084;28;20189;-79
2023/02/12 05:38:11;;;;;;;0.10;0.10;;;7.50;99.90;;;;;;5029909;28;20778;-79
2023/02/12 05:40:37;;;;;;;0.10;0.10;;;7.40;99.90;;;;;;5028551;28;20194;-79
2023/02/12 05:43:02;;;;;;;0.10;0.10;;;7.40;99.90;;;;;;5031457;28;20209;-79
2023/02/12 05:45:28;;;;;;;0.10;0.10;;;7.50;99.90;;;;;;5030304;28;20301;-78
2023/02/12 05:47:55;;;;;;;0.10;0.10;;;7.50;99.90;;;;;;5026415;28;20639;-78
2023/02/12 05:50:21;;;;;;;0.10;0.10;;;7.50;99.90;;;;;;5029635;28;20220;-78
2023/02/12 05:52:47;;;;;;;0.10;0.10;;;7.40;99.90;;;;;;5031767;28;20233;-78
2023/02/12 05:55:12;;;;;;;0.10;0.10;;;7.50;99.90;;;;;;5031294;28;20197;-79
2023/02/12 05:57:38;;;;;;;0.10;0.10;;;7.50;99.90;;;;;;5030440;28;20197;-79
2023/02/12 06:00:07;;;;;;;0.10;0.10;;;7.60;99.90;;;;;;5031613;28;20582;-79
2023/02/12 06:02:34;;;;;;;0.10;0.10;;;7.50;99.90;;;;;;5029794;28;20206;-79
2023/02/12 06:05:00;;;;;;;0.10;0.10;;;7.50;99.90;;;;;;5031351;28;20609;-79
2023/02/12 06:07:25;;;;;;;0.10;0.10;;;7.40;99.90;;;;;;5027470;28;20212;-78
2023/02/12 06:09:51;;;;;;;0.10;0.10;;;7.50;99.90;;;;;;5029503;28;20214;-80
2023/02/12 06:12:16;;;;;;;0.10;0.10;;;7.50;99.90;;;;;;5029787;28;20194;-79
2023/02/12 06:14:42;;;;;;;0.10;0.10;;;7.60;99.90;;;;;;5028212;28;20752;-80
2023/02/12 06:17:07;;;;;;;0.10;0.10;;;7.60;99.90;;;;;;5046634;28;20200;-78
2023/02/12 06:19:33;;;;;;;0.10;0.10;;;7.60;99.90;;;;;;5029371;28;20194;-79
2023/02/12 06:21:58;;;;;;;0.10;0.10;;;7.60;99.90;;;;;;5022233;28;20290;-79
2023/02/12 06:24:24;;;;;;;0.10;0.10;;;7.60;99.90;;;;;;5023976;28;20796;-79
2023/02/12 06:26:50;;;;;;;0.10;0.10;;;7.60;99.90;;;;;;5025716;28;20213;-78
2023/02/12 06:29:17;;;;;;;0.10;0.10;;;7.60;99.90;;;;;;5027271;28;20186;-79
2023/02/12 06:31:42;;;;;;;0.00;0.00;;;7.60;99.90;;;;;;5027907;28;20207;-79
2023/02/12 06:34:10;;;;;;;0.10;0.10;;;7.50;99.90;;;;;;5027566;28;20180;-79
2023/02/12 06:36:37;;;;;;;0.00;0.00;;;7.40;99.90;;;;;;5026367;28;20185;-79
2023/02/12 06:39:03;;;;;;;0.10;0.10;;;7.40;99.90;;;;;;5028527;28;20204;-79
2023/02/12 06:41:29;;;;;;;0.10;0.10;;;7.20;99.90;;;;;;5026889;28;20709;-79
2023/02/12 06:43:55;;;;;;;0.10;0.10;;;7.10;99.90;;;;;;5028403;28;20185;-78
2023/02/12 06:46:20;;;;;;;0.10;0.10;;;7.00;99.90;;;;;;5026566;28;20209;-79
2023/02/12 06:48:46;;;;;;;0.10;0.10;;;6.90;99.90;;;;;;5025614;28;20323;-79
2023/02/12 06:51:15;;;;;;;0.10;0.10;;;7.00;99.90;;;;;;5023448;28;20210;-79
2023/02/12 06:53:41;;;;;;;0.10;0.10;;;7.10;99.90;;;;;;5027258;28;20237;-79
2023/02/12 06:56:12;;;;;;;0.10;0.10;;;7.00;99.90;;;;;;5026857;28;20263;-79
2023/02/12 06:58:40;;;;;;;0.10;0.10;;;6.90;99.90;;;;;;5024477;28;20187;-79
2023/02/12 07:01:16;;;;;;;0.10;0.10;;;6.90;99.90;;;;;;5027452;28;20209;-79
2023/02/12 07:03:45;;;;;;;0.10;0.10;;;6.80;99.90;;;;;;5028171;28;21041;-79
2023/02/12 07:06:11;;;;;;;0.10;0.10;;;6.70;99.90;;;;;;5042588;28;20217;-78
2023/02/12 07:08:37;;;;;;;0.10;0.10;;;6.70;99.90;;;;;;5026432;28;20443;-79
2023/02/12 07:11:03;;;;;;;0.10;0.10;;;6.70;99.90;;;;;;5027693;28;20186;-79
2023/02/12 07:13:29;;;;;;;0.10;0.10;;;6.60;99.90;;;;;;5026176;28;20217;-79
2023/02/12 07:15:54;;;;;;;0.10;0.10;;;6.60;99.90;;;;;;5027665;28;20187;-78
2023/02/12 07:18:20;;;;;;;0.10;0.10;;;6.60;99.90;;;;;;5025950;28;20185;-79
2023/02/12 07:20:45;;;;;;;0.00;0.00;;;6.60;99.90;;;;;;5026212;28;20186;-79
2023/02/12 07:23:11;;;;;;;0.10;0.10;;;6.60;99.90;;;;;;5027317;28;20297;-79
2023/02/12 07:25:37;;;;;;;0.10;0.10;;;6.60;99.90;;;;;;5027220;28;20194;-79
2023/02/12 07:28:03;;;;;;;0.10;0.10;;;6.70;99.90;;;;;;5027747;28;20312;-78
2023/02/12 07:30:28;;;;;;;0.10;0.10;;;6.70;99.90;;;;;;5025377;28;20193;-79
2023/02/12 07:32:54;;;;;;;0.10;0.10;;;6.80;99.90;;;;;;5025011;28;20556;-79
2023/02/12 07:35:20;;;;;;;0.10;0.10;;;7.00;99.90;;;;;;5027049;28;20572;-78
2023/02/12 07:37:45;;;;;;;0.10;0.10;;;7.20;99.90;;;;;;5022165;28;20197;-79
2023/02/12 07:40:11;;;;;;;0.10;0.10;;;7.40;99.90;;;;;;5023735;28;20189;-79
2023/02/12 07:42:36;;;;;;;0.10;0.10;;;7.50;99.90;;;;;;5026501;28;20209;-78
2023/02/12 07:45:02;;;;;;;0.10;0.10;;;7.60;99.90;;;;;;5027292;28;20193;-79
2023/02/12 07:47:27;;;;;;;0.10;0.10;;;7.50;99.90;;;;;;5024904;28;20213;-79
2023/02/12 07:49:53;;;;;;;0.10;0.10;;;7.50;99.90;;;;;;5025943;28;20197;-79
2023/02/12 07:52:19;;;;;;;0.10;0.10;;;7.40;99.90;;;;;;5025241;28;20289;-79
2023/02/12 07:54:44;;;;;;;0.10;0.10;;;7.40;99.90;;;;;;5026272;28;20194;-79
2023/02/12 07:57:10;;;;;;;0.10;0.10;;;7.40;99.90;;;;;;5023995;28;20298;-79
2023/02/12 07:59:35;;;;;;;0.10;0.10;;;7.50;99.90;;;;;;5024666;28;20212;-79
2023/02/12 08:02:01;;;;;;;0.10;0.10;;;7.60;99.90;;;;;;5025226;28;20331;-79
2023/02/12 08:04:26;;;;;;;0.10;0.10;;;7.70;99.90;;;;;;5025581;28;20190;-79
2023/02/12 08:06:54;;;;;;;0.03;0.03;;;7.80;99.90;;;;;;5022057;28;20221;-79
2023/02/12 08:09:25;;;;;;;0.10;0.10;;;8.00;99.90;;;;;;5026639;28;20257;-79
2023/02/12 08:11:51;;;;;;;0.10;0.10;;;7.90;99.90;;;;;;5025975;28;20210;-79
2023/02/12 08:14:19;;;;;;;0.10;0.10;;;7.80;99.90;;;;;;5025720;28;20180;-79
2023/02/12 08:16:47;;;;;;;0.00;0.00;;;7.90;99.90;;;;;;5025733;28;20594;-78
2023/02/12 08:19:13;;;;;;;0.10;0.10;;;8.00;99.90;;;;;;5024350;28;20527;-79
2023/02/12 08:21:38;;;;;;;0.00;0.00;;;8.30;99.90;;;;;;5026299;28;20708;-79
2023/02/12 08:24:04;;;;;;;0.10;0.10;;;8.40;99.90;;;;;;5024364;28;20220;-79
2023/02/12 08:26:35;;;;;;;0.10;0.10;;;8.30;99.90;;;;;;5026008;28;20292;-79
2023/02/12 08:29:10;;;;;;;0.10;0.10;;;8.20;99.90;;;;;;5021623;28;20237;-79
2023/02/12 08:31:43;;;;;;;0.00;0.00;;;8.10;99.90;;;;;;5024422;28;20215;-79
2023/02/12 08:34:26;;;;;;;0.10;0.10;;;8.10;99.90;;;;;;5020312;28;20185;-79
2023/02/12 08:36:53;;;;;;;0.10;0.10;;;8.20;99.90;;;;;;5024239;28;20196;-79
2023/02/12 08:39:19;;;;;;;0.10;0.10;;;8.60;99.90;;;;;;5024728;28;20327;-79
2023/02/12 08:41:46;;;;;;;0.10;0.10;;;8.80;99.90;;;;;;5021054;28;20703;-79
2023/02/12 08:44:12;;;;;;;0.10;0.10;;;9.10;99.90;;;;;;5024512;28;20178;-79
2023/02/12 08:46:41;;;;;;;0.10;0.10;;;9.10;99.90;;;;;;5024008;28;20210;-79
2023/02/12 08:49:11;;;;;;;0.10;0.10;;;9.20;99.90;;;;;;5021018;28;21407;-79
2023/02/12 08:51:39;;;;;;;0.10;0.10;;;9.40;99.90;;;;;;5024590;28;20290;-79
2023/02/12 08:54:09;;;;;;;0.10;0.10;;;9.50;99.90;;;;;;5026053;28;20640;-79
2023/02/12 08:56:35;;;;;;;0.10;0.10;;;9.60;99.90;;;;;;5024737;28;20655;-79
2023/02/12 08:59:03;;;;;;;0.10;0.10;;;9.60;99.90;;;;;;5024855;28;20188;-79
2023/02/12 09:01:30;;;;;;;0.10;0.10;;;9.70;99.90;;;;;;5024239;28;20260;-79
2023/02/12 09:03:56;;;;;;;0.10;0.10;;;9.80;99.90;;;;;;5023290;28;20185;-79
2023/02/12 09:06:24;;;;;;;0.10;0.10;;;9.50;99.90;;;;;;5021942;28;20289;-79
2023/02/12 09:08:50;;;;;;;0.10;0.10;;;8.90;99.90;;;;;;5023812;28;20642;-78
2023/02/12 09:11:25;;;;;;;0.10;0.10;;;9.00;99.90;;;;;;5023722;28;20401;-79
2023/02/12 09:13:51;;;;;;;0.10;0.10;;;9.30;99.90;;;;;;5024757;28;20295;-79
2023/02/12 09:16:16;;;;;;;0.10;0.10;;;9.50;99.90;;;;;;5020061;28;20689;-79
2023/02/12 09:18:42;;;;;;;0.10;0.10;;;9.60;99.90;;;;;;5023192;28;20197;-79
2023/02/12 09:21:10;;;;;;;0.10;0.10;;;9.70;99.90;;;;;;5024892;28;20182;-79
2023/02/12 09:23:36;;;;;;;0.10;0.10;;;9.80;99.90;;;;;;5025031;28;20204;-79
2023/02/12 09:26:07;;;;;;;0.10;0.10;;;9.40;99.90;;;;;;5020257;28;20419;-79
2023/02/12 09:28:33;;;;;;;0.10;0.10;;;9.60;99.90;;;;;;5024588;28;20187;-79
2023/02/12 09:31:04;;;;;;;0.10;0.10;;;9.80;99.90;;;;;;5024575;28;20186;-79
2023/02/12 09:33:30;;;;;;;0.10;0.10;;;10.00;99.90;;;;;;5026158;28;20174;-78
2023/02/12 09:35:59;;;;;;;0.10;0.10;;;10.20;99.90;;;;;;5028225;28;20685;-78
2023/02/12 09:38:25;;;;;;;0.00;0.00;;;10.30;99.90;;;;;;5026028;28;20248;-79
2023/02/12 09:41:21;;;;;;;0.10;0.10;;;10.20;99.90;;;;;;5021608;28;20190;-79
2023/02/12 09:44:05;;;;;;;0.10;0.10;;;10.30;99.90;;;;;;5024270;28;20277;-79
2023/02/12 09:46:48;;;;;;;0.10;0.10;;;10.40;99.90;;;;;;5024030;28;20293;-79
2023/02/12 09:49:46;;;;;;;0.10;0.10;;;10.20;99.90;;;;;;5026091;28;20178;-79
2023/02/12 09:52:16;;;;;;;0.10;0.10;;;10.30;99.90;;;;;;5020981;28;20206;-78
2023/02/12 09:54:43;;;;;;;0.10;0.10;;;10.40;99.90;;;;;;5026624;28;20265;-78
2023/02/12 09:57:32;;;;;;;0.10;0.10;;;10.60;99.90;;;;;;5027261;28;20190;-80
2023/02/12 10:00:10;;;;;;;0.10;0.10;;;10.70;99.90;;;;;;5028743;28;20206;-79
2023/02/12 10:02:37;;;;;;;0.00;0.00;;;10.60;99.90;;;;;;5028345;28;20210;-79
2023/02/12 10:05:13;;;;;;;0.10;0.10;;;10.10;99.90;;;;;;5027366;28;20197;-79
2023/02/12 10:07:41;;;;;;;0.10;0.10;;;10.20;99.90;;;;;;5028314;28;20578;-78
2023/02/12 10:10:07;;;;;;;0.00;0.00;;;10.50;99.90;;;;;;5029270;28;20194;-79
2023/02/12 10:12:47;;;;;;;0.10;0.10;;;10.30;99.90;;;;;;5028188;28;20581;-79
2023/02/12 10:15:19;;;;;;;0.10;0.10;;;9.60;99.90;;;;;;5025558;28;20277;-79
2023/02/12 10:18:12;;;;;;;0.00;0.00;;;9.10;99.90;;;;;;5029369;28;20266;-79
2023/02/12 10:21:03;;;;;;;0.10;0.10;;;9.20;99.90;;;;;;5025580;28;20189;-79
2023/02/12 10:23:53;;;;;;;0.10;0.10;;;9.10;99.90;;;;;;5027767;28;20252;-79
2023/02/12 10:26:21;;;;;;;0.10;0.10;;;9.20;99.90;;;;;;5029331;28;20604;-79
2023/02/12 10:28:47;;;;;;;0.10;0.10;;;9.30;99.90;;;;;;5027927;28;20184;-80
2023/02/12 10:31:30;;;;;;;0.10;0.10;;;9.50;99.90;;;;;;5027830;28;20206;-79
2023/02/12 10:33:56;;;;;;;0.10;0.10;;;9.80;99.90;;;;;;5028851;28;20661;-79
2023/02/12 10:36:51;;;;;;;0.00;0.00;;;10.00;99.90;;;;;;5027236;28;20425;-79
2023/02/12 10:39:24;;;;;;;0.10;0.10;;;10.10;99.90;;;;;;5027039;28;20190;-79
2023/02/12 10:42:09;;;;;;;0.10;0.10;;;10.20;99.90;;;;;;5025327;28;20256;-79
2023/02/12 10:44:34;;;;;;;0.10;0.10;;;10.00;99.90;;;;;;5029115;28;20255;-79
2023/02/12 10:47:00;;;;;;;0.10;0.10;;;9.80;99.90;;;;;;5023652;28;20917;-79
2023/02/12 10:49:30;;;;;;;0.03;0.03;;;10.00;99.90;;;;;;5024628;28;20183;-79
2023/02/12 10:52:26;;;;;;;0.10;0.10;;;10.10;99.90;;;;;;5027535;28;20571;-79
2023/02/12 10:54:52;;;;;;;0.10;0.10;;;9.60;99.90;;;;;;5028702;28;20225;-79
2023/02/12 10:57:26;;;;;;;0.10;0.10;;;9.60;99.90;;;;;;5025587;28;20261;-79
2023/02/12 10:59:56;;;;;;;0.10;0.10;;;9.50;99.90;;;;;;5027514;28;20200;-79
2023/02/12 11:02:30;;;;;;;0.10;0.10;;;9.70;99.90;;;;;;5025008;28;20224;-79
2023/02/12 11:04:58;;;;;;;0.10;0.10;;;9.90;99.90;;;;;;5019323;28;20182;-79
2023/02/12 11:07:25;;;;;;;0.10;0.10;;;10.20;99.90;;;;;;5018426;28;20206;-79
2023/02/12 11:09:52;;;;;;;0.10;0.10;;;10.40;99.90;;;;;;5028601;28;20195;-79
2023/02/12 11:12:46;;;;;;;0.10;0.10;;;10.50;99.90;;;;;;5025252;28;20230;-79
2023/02/12 11:15:24;;;;;;;0.10;0.10;;;10.40;99.90;;;;;;5028169;28;20175;-79
2023/02/12 11:18:01;;;;;;;0.10;0.10;;;10.00;99.90;;;;;;5027119;28;20235;-79
2023/02/12 11:20:37;;;;;;;0.10;0.10;;;10.20;99.90;;;;;;5026680;28;20192;-78
2023/02/12 11:23:05;;;;;;;0.00;0.00;;;10.10;99.90;;;;;;5027011;28;20817;-79
2023/02/12 11:25:36;;;;;;;0.10;0.10;;;10.00;99.90;;;;;;5026796;28;20185;-79
2023/02/12 11:28:17;;;;;;;0.10;0.10;;;9.60;99.90;;;;;;5026261;28;20174;-79
2023/02/12 11:30:50;;;;;;;0.10;0.10;;;9.60;99.90;;;;;;5026564;28;20189;-79
2023/02/12 11:33:21;;;;;;;0.10;0.10;;;9.90;99.90;;;;;;5023480;28;20202;-79
2023/02/12 11:35:59;;;;;;;0.10;0.10;;;10.30;99.90;;;;;;5025866;28;20183;-79
2023/02/12 11:38:31;;;;;;;0.10;0.10;;;10.60;99.90;;;;;;5026432;28;20185;-79
2023/02/12 11:41:02;;;;;;;0.10;0.10;;;10.20;99.90;;;;;;5026106;28;20171;-79
2023/02/12 11:43:29;;;;;;;0.10;0.10;;;10.40;99.90;;;;;;5026684;28;20232;-79
2023/02/12 11:45:56;;;;;;;0.10;0.10;;;10.30;99.90;;;;;;5026202;28;20198;-78
2023/02/12 11:48:29;;;;;;;0.10;0.10;;;10.30;99.90;;;;;;5026222;28;20374;-79
2023/02/12 11:50:58;;;;;;;0.10;0.10;;;10.30;99.90;;;;;;5026086;28;20644;-79
2023/02/12 11:53:32;;;;;;;0.10;0.10;;;10.30;99.90;;;;;;5019776;28;20370;-79
2023/02/12 11:56:01;;;;;;;0.10;0.10;;;10.70;99.90;;;;;;5021977;28;20185;-79
2023/02/12 11:58:28;;;;;;;0.10;0.10;;;11.00;99.90;;;;;;5027320;28;20509;-79
2023/02/12 12:01:02;;;;;;;0.10;0.10;;;10.80;99.90;;;;;;5026889;28;20208;-79
2023/02/12 12:04:10;;;;;;;0.10;0.10;;;10.80;99.90;;;;;;5025876;28;20178;-78
2023/02/12 12:06:47;;;;;;;0.10;0.10;;;11.20;99.90;;;;;;5025842;28;20244;-79
2023/02/12 12:09:27;;;;;;;0.10;0.10;;;11.50;99.90;;;;;;5024020;28;20185;-79
2023/02/12 12:12:10;;;;;;;0.10;0.10;;;11.60;99.90;;;;;;5027322;28;20198;-79
2023/02/12 12:21:35;;;;;;;0.10;0.10;;;11.30;99.90;;;;;;5027811;28;20232;-79
2023/02/12 12:24:12;;;;;;;0.10;0.10;;;11.70;99.90;;;;;;5026812;28;20192;-79
2023/02/12 12:26:41;;;;;;;0.10;0.10;;;11.90;99.90;;;;;;5025473;28;20206;-79
2023/02/12 12:29:20;;;;;;;0.10;0.10;;;12.10;99.90;;;;;;5026594;28;20171;-79
2023/02/12 12:31:51;;;;;;;0.10;0.10;;;12.30;99.90;;;;;;5026522;28;20225;-79
2023/02/12 12:34:20;;;;;;;0.10;0.10;;;12.30;99.90;;;;;;5028135;28;20185;-79
2023/02/12 12:37:14;;;;;;;0.00;0.00;;;12.20;99.90;;;;;;5026592;28;20186;-79
2023/02/12 12:40:20;;;;;;;0.10;0.10;;;12.30;99.90;;;;;;5027696;28;20686;-79
2023/02/12 12:43:19;;;;;;;0.10;0.10;;;12.50;99.90;;;;;;5026304;28;20207;-79
2023/02/12 12:45:54;;;;;;;0.10;0.10;;;12.20;99.90;;;;;;5025609;28;20273;-79
2023/02/12 12:48:51;;;;;;;0.10;0.10;;;12.30;99.90;;;;;;5027683;28;20648;-79
2023/02/12 12:51:28;;;;;;;0.10;0.10;;;12.40;99.90;;;;;;5027291;28;20630;-79
2023/02/12 12:54:25;;;;;;;0.10;0.10;;;12.40;99.90;;;;;;5026400;28;20255;-79
2023/02/12 12:57:04;;;;;;;0.03;0.03;;;12.40;99.90;;;;;;5024989;28;20181;-79
2023/02/12 12:59:55;;;;;;;0.10;0.10;;;12.40;99.90;;;;;;5027257;28;20193;-79
2023/02/12 13:02:39;;;;;;;0.10;0.10;;;12.50;99.90;;;;;;5023048;28;20292;-79
2023/02/12 13:05:38;;;;;;;0.10;0.10;;;12.40;99.90;;;;;;5025995;28;20205;-79
2023/02/12 13:08:25;;;;;;;0.10;0.10;;;12.00;99.90;;;;;;5028677;28;20196;-79
2023/02/12 13:11:06;;;;;;;0.10;0.10;;;11.80;99.90;;;;;;5025156;28;20238;-79
2023/02/12 13:13:40;;;;;;;0.10;0.10;;;11.70;99.90;;;;;;5043753;28;20177;-78
2023/02/12 13:16:38;;;;;;;0.10;0.10;;;11.40;99.90;;;;;;5028032;28;20178;-78
2023/02/12 13:19:40;;;;;;;0.10;0.10;;;11.70;99.90;;;;;;5026780;28;20189;-79
2023/02/12 13:22:20;;;;;;;0.10;0.10;;;11.90;99.90;;;;;;5026181;28;20228;-79
2023/02/12 13:24:56;;;;;;;0.10;0.10;;;11.90;99.90;;;;;;5027606;28;20189;-79
2023/02/12 13:27:26;;;;;;;0.10;0.10;;;12.00;99.90;;;;;;5027171;28;20693;-79
2023/02/12 13:29:58;;;;;;;0.10;0.10;;;11.60;99.90;;;;;;5028980;28;20183;-79